createdAt,value
2022-09-03T00:02:22.417Z,1.45
2022-09-03T00:07:33.372Z,1.02
2022-09-03T00:12:41.822Z,1.02
2022-09-03T00:17:49.048Z,1.20
2022-09-03T00:22:55.185Z,1.20
2022-09-03T00:28:02.699Z,1.35
2022-09-03T00:33:10.733Z,1.27
2022-09-03T00:38:13.735Z,1.23
2022-09-03T00:43:32.868Z,1.20
2022-09-03T00:48:51.153Z,1.27
2022-09-03T00:54:01.640Z,1.40
2022-09-03T00:59:22.928Z,1.25
2022-09-03T01:04:33.672Z,1.65
2022-09-03T01:09:49.052Z,1.17
2022-09-03T01:15:05.238Z,1.45
2022-09-03T01:20:22.335Z,1.30
2022-09-03T01:25:37.625Z,1.20
2022-09-03T01:30:47.351Z,1.52
2022-09-03T01:35:54.407Z,1.35
2022-09-03T01:41:23.424Z,1.27
2022-09-03T01:46:34.915Z,1.50
2022-09-03T01:51:37.611Z,1.40
2022-09-03T01:56:56.911Z,1.40
2022-09-03T02:02:07.826Z,1.30
2022-09-03T02:07:10.490Z,1.23
2022-09-03T02:12:20.380Z,1.50
2022-09-03T02:17:24.222Z,1.20
2022-09-03T02:22:26.872Z,1.52
2022-09-03T02:27:29.739Z,1.63
2022-09-03T02:32:33.876Z,1.50
2022-09-03T02:37:36.501Z,1.40
2022-09-03T02:42:39.122Z,1.60
2022-09-03T02:47:45.765Z,1.30
2022-09-03T02:52:48.230Z,1.60
2022-09-03T02:57:50.672Z,1.30
2022-09-03T03:02:56.450Z,1.35
2022-09-03T03:07:59.098Z,1.30
2022-09-03T03:13:01.791Z,1.58
2022-09-03T03:18:05.971Z,1.40
2022-09-03T03:23:09.017Z,1.35
2022-09-03T03:28:11.495Z,1.60
2022-09-03T03:33:15.435Z,1.50
2022-09-03T03:38:18.130Z,1.42
2022-09-03T03:43:20.564Z,1.80
2022-09-03T03:48:24.748Z,1.75
2022-09-03T03:53:27.248Z,1.58
2022-09-03T03:58:32.527Z,1.50
2022-09-03T04:03:36.818Z,1.65
2022-09-03T04:08:41.027Z,1.25
2022-09-03T04:13:45.589Z,1.25
2022-09-03T04:18:50.172Z,1.65
2022-09-03T04:23:53.575Z,1.83
2022-09-03T04:28:56.676Z,1.23
2022-09-03T04:34:02.162Z,1.33
2022-09-03T04:39:04.669Z,1.52
2022-09-03T04:44:07.145Z,1.40
2022-09-03T04:49:10.977Z,1.65
2022-09-03T04:54:13.485Z,1.67
2022-09-03T04:59:15.998Z,1.33
2022-09-03T05:04:20.153Z,1.80
2022-09-03T05:09:22.598Z,1.58
2022-09-03T05:14:25.054Z,1.58
2022-09-03T05:19:29.249Z,1.60
2022-09-03T05:24:31.809Z,1.40
2022-09-03T05:29:34.237Z,1.63
2022-09-03T05:34:38.153Z,1.63
2022-09-03T05:39:40.598Z,1.42
2022-09-03T05:44:43.829Z,1.60
2022-09-03T05:49:47.924Z,1.60
2022-09-03T05:54:50.405Z,1.70
2022-09-03T05:59:53.392Z,1.83
2022-09-03T06:04:57.819Z,1.80
2022-09-03T06:15:02.925Z,2.15
2022-09-03T06:20:08.238Z,1.90
2022-09-03T06:25:11.419Z,1.73
2022-09-03T06:30:15.732Z,1.80
2022-09-03T06:35:19.964Z,1.50
2022-09-03T06:40:23.570Z,1.70
2022-09-03T06:45:26.218Z,1.60
2022-09-03T06:50:34.407Z,1.50
2022-09-03T06:55:40.133Z,2.00
2022-09-03T07:00:43.073Z,1.40
2022-09-03T07:05:47.074Z,1.33
2022-09-03T07:10:51.235Z,1.67
2022-09-03T07:16:01.331Z,1.33
2022-09-03T07:21:07.380Z,2.03
2022-09-03T07:26:13.239Z,1.25
2022-09-03T07:31:19.265Z,1.42
2022-09-03T07:36:25.136Z,1.63
2022-09-03T07:41:29.122Z,1.83
2022-09-03T07:46:32.398Z,1.60
2022-09-03T07:51:37.918Z,1.92
2022-09-03T07:56:41.442Z,1.55
2022-09-03T08:01:43.945Z,1.70
2022-09-03T08:06:48.268Z,1.40
2022-09-03T08:16:53.365Z,1.13
2022-09-03T08:21:57.167Z,1.83
2022-09-03T08:26:59.620Z,1.40
2022-09-03T08:32:05.210Z,1.40
2022-09-03T08:37:12.732Z,1.88
2022-09-03T08:42:29.636Z,1.20
2022-09-03T08:47:37.402Z,1.20
2022-09-03T08:52:49.202Z,1.40
2022-09-03T08:57:57.224Z,1.20
2022-09-03T09:03:15.338Z,1.40
2022-09-03T09:08:25.045Z,1.30
2022-09-03T09:13:35.232Z,1.70
2022-09-03T09:18:51.010Z,1.20
2022-09-03T09:23:59.124Z,1.20
2022-09-03T09:29:06.362Z,1.10
2022-09-03T09:34:12.909Z,1.52
2022-09-03T09:39:17.084Z,1.20
2022-09-03T09:44:21.635Z,1.15
2022-09-03T09:49:32.316Z,1.10
2022-09-03T09:54:36.487Z,1.20
2022-09-03T09:59:39.037Z,1.10
2022-09-03T10:04:44.213Z,1.20
2022-09-03T10:10:00.531Z,1.13
2022-09-03T10:15:10.267Z,1.52
2022-09-03T10:20:34.313Z,2.17
2022-09-03T10:25:48.144Z,1.17
2022-09-03T10:31:19.271Z,1.27
2022-09-03T10:36:26.450Z,1.13
2022-09-03T10:41:42.543Z,1.60
2022-09-03T10:46:58.838Z,1.33
2022-09-03T10:52:09.038Z,1.20
2022-09-03T10:57:22.767Z,1.42
2022-09-03T11:02:47.498Z,2.10
2022-09-03T11:07:54.148Z,1.60
2022-09-03T11:13:05.838Z,1.30
2022-09-03T11:18:17.506Z,2.08
2022-09-03T11:23:21.034Z,1.77
2022-09-03T11:28:37.185Z,1.60
2022-09-03T11:33:42.874Z,1.30
2022-09-03T11:38:45.412Z,2.05
2022-09-03T11:43:49.504Z,1.60
2022-09-03T11:48:55.475Z,2.08
2022-09-03T11:54:00.279Z,2.35
2022-09-03T11:59:16.330Z,1.13
2022-09-03T12:04:21.473Z,1.92
2022-09-03T12:09:40.092Z,2.97
2022-09-03T12:15:02.497Z,1.90
2022-09-03T12:20:13.253Z,2.00
2022-09-03T12:25:17.140Z,1.95
2022-09-03T12:30:26.214Z,1.95
2022-09-03T12:46:17.404Z,1.50
2022-09-03T12:56:46.361Z,1.52
2022-09-03T13:01:54.006Z,2.45
2022-09-03T13:07:03.526Z,1.70
2022-09-03T13:12:07.353Z,1.67
2022-09-03T13:17:33.179Z,1.83
2022-09-03T13:22:47.323Z,1.88
2022-09-03T13:28:02.485Z,1.30
2022-09-03T13:33:17.805Z,1.40
2022-09-03T13:38:28.940Z,2.22
2022-09-03T13:43:39.778Z,1.42
2022-09-03T13:49:03.677Z,1.10
2022-09-03T13:54:31.019Z,1.00
2022-09-03T13:59:50.019Z,1.20
2022-09-03T14:05:08.005Z,1.15
2022-09-03T14:10:28.676Z,1.58
2022-09-03T14:15:35.950Z,1.42
2022-09-03T14:20:45.208Z,1.58
2022-09-03T14:25:54.899Z,1.90
2022-09-03T14:31:11.860Z,1.80
2022-09-03T14:36:27.321Z,1.80
2022-09-03T14:41:46.505Z,2.10
2022-09-03T14:47:03.586Z,1.10
2022-09-03T14:52:25.545Z,1.42
2022-09-03T14:57:55.974Z,1.20
2022-09-03T15:03:22.176Z,1.00
2022-09-03T15:08:39.860Z,1.25
2022-09-03T15:13:48.564Z,1.05
2022-09-03T15:19:07.843Z,1.15
2022-09-03T15:24:20.764Z,1.35
2022-09-03T15:29:37.587Z,1.10
2022-09-03T15:35:08.777Z,1.17
2022-09-03T15:40:24.611Z,1.67
2022-09-03T15:45:36.561Z,1.30
2022-09-03T15:50:52.848Z,1.20
2022-09-03T15:56:13.900Z,1.30
2022-09-03T16:01:27.819Z,1.00
2022-09-03T16:06:38.104Z,1.25
2022-09-03T16:11:53.296Z,1.38
2022-09-03T16:17:03.693Z,0.77
2022-09-03T16:22:13.258Z,1.52
2022-09-03T16:27:21.993Z,1.25
2022-09-03T16:32:35.162Z,1.20
2022-09-03T16:37:54.232Z,2.20
2022-09-03T16:43:23.624Z,0.93
2022-09-03T16:48:38.399Z,1.50
2022-09-03T16:54:00.148Z,2.00
2022-09-03T16:59:16.156Z,1.30
2022-09-03T17:04:41.419Z,1.65
2022-09-03T17:09:59.319Z,1.50
2022-09-03T17:15:21.718Z,1.98
2022-09-03T17:20:47.245Z,1.20
2022-09-03T17:25:55.604Z,1.23
2022-09-03T17:31:09.897Z,1.30
2022-09-03T17:36:14.923Z,1.40
2022-09-03T17:41:32.342Z,1.35
2022-09-03T17:46:46.942Z,1.10
2022-09-03T17:51:59.473Z,1.70
2022-09-03T17:57:14.636Z,1.30
2022-09-03T18:02:32.322Z,1.60
2022-09-03T18:07:43.959Z,2.00
2022-09-03T18:13:01.361Z,1.77
2022-09-03T18:18:12.538Z,1.88
2022-09-03T18:23:39.684Z,1.92
2022-09-03T18:29:05.490Z,1.60
2022-09-03T18:34:27.445Z,1.85
2022-09-03T18:39:48.283Z,7.47
2022-09-03T18:45:21.940Z,5.85
2022-09-03T18:56:19.117Z,1.98
2022-09-03T19:01:49.589Z,2.13
2022-09-03T19:07:22.817Z,2.80
2022-09-03T19:12:59.497Z,2.60
2022-09-03T19:18:28.085Z,2.53
2022-09-03T19:23:51.781Z,2.70
2022-09-03T19:29:26.389Z,3.75
2022-09-03T19:35:08.026Z,2.85
2022-09-03T19:40:44.820Z,3.33
2022-09-03T19:46:12.886Z,2.88
2022-09-03T19:51:37.648Z,2.92
2022-09-03T19:56:59.907Z,3.22
2022-09-03T20:02:20.642Z,2.97
2022-09-03T20:07:41.176Z,3.97
2022-09-03T20:12:50.289Z,4.00
2022-09-03T20:18:02.587Z,3.65
2022-09-03T20:23:12.803Z,3.60
2022-09-03T20:28:29.939Z,3.60
2022-09-03T20:33:58.457Z,3.03
2022-09-03T20:39:20.653Z,3.38
2022-09-03T20:44:52.130Z,3.90
2022-09-03T20:50:04.249Z,2.80
2022-09-03T20:55:13.809Z,2.90
2022-09-03T21:00:19.731Z,3.05
2022-09-03T21:05:30.178Z,2.55
2022-09-03T21:10:37.504Z,2.90
2022-09-03T21:15:56.452Z,3.20
2022-09-03T21:21:05.838Z,2.30
2022-09-03T21:26:16.066Z,2.58
2022-09-03T21:31:25.541Z,2.00
2022-09-03T21:36:31.579Z,2.13
2022-09-03T21:41:39.057Z,2.50
2022-09-03T21:46:51.029Z,2.38
2022-09-03T21:52:00.269Z,2.08
2022-09-03T21:57:14.098Z,2.75
2022-09-03T22:02:25.057Z,2.30
2022-09-03T22:07:42.902Z,1.92
2022-09-03T22:12:53.518Z,1.90
2022-09-03T22:18:02.162Z,2.00
2022-09-03T22:23:12.343Z,2.55
2022-09-03T22:28:22.516Z,2.10
2022-09-03T22:33:34.777Z,1.70
2022-09-03T22:38:56.456Z,2.75
2022-09-03T22:44:11.169Z,2.10
2022-09-03T22:49:30.117Z,2.00
2022-09-03T22:54:44.706Z,1.80
2022-09-03T22:59:56.556Z,2.08
2022-09-03T23:05:06.722Z,1.77
2022-09-03T23:10:14.540Z,2.10
2022-09-03T23:15:32.297Z,2.15
2022-09-03T23:20:40.289Z,1.73
2022-09-03T23:25:45.276Z,2.22
2022-09-03T23:30:47.982Z,2.10
2022-09-03T23:35:57.811Z,1.92
2022-09-03T23:41:05.368Z,2.10
2022-09-03T23:46:17.404Z,2.10
2022-09-03T23:51:32.738Z,2.38
2022-09-03T23:56:53.226Z,2.33
